Time;durP1;ratioP1;P1;durP2;ratioP2;P2;SDS_P1;SDS_P2;PMS_P1;PMS_P2;Temp;Humidity;BMP_temperature;BMP_pressure;BME280_temperature;BME280_humidity;BME280_pressure;Samples;Min_cycle;Max_cycle;Signal;HPM_P1;HPM_P2
2022/11/11 03:55:23;;;;;;;13.07;6.03;;;10.10;99.90;;;;;;6210946;23;20059;-89
2022/11/11 03:58:20;;;;;;;12.93;5.67;;;10.10;99.90;;;;;;6190161;23;20023;-90
2022/11/11 04:10:21;;;;;;;11.20;6.03;;;10.10;99.90;;;;;;6230367;23;20067;-86
2022/11/11 04:10:23;;;;;;;12.60;5.30;;;10.00;99.90;;;;;;6240541;23;20015;-88
2022/11/11 04:16:12;;;;;;;11.50;5.50;;;10.10;99.90;;;;;;6240688;23;20019;-87
2022/11/11 05:03:15;;;;;;;11.77;5.70;;;10.00;99.90;;;;;;6222719;22;20043;-88
2022/11/11 05:09:03;;;;;;;10.50;4.93;;;10.00;99.90;;;;;;6241610;23;20122;-88
2022/11/11 05:11:47;;;;;;;9.87;4.90;;;10.10;99.90;;;;;;6241812;23;20430;-88
2022/11/11 05:57:27;;;;;;;10.07;4.87;;;10.10;99.90;;;;;;6182881;23;20108;-86
2022/11/11 06:10:58;;;;;;;7.83;3.87;;;10.10;99.90;;;;;;6187123;23;20037;-84
2022/11/11 06:16:58;;;;;;;8.93;4.00;;;10.20;99.90;;;;;;6214611;23;20084;-92
2022/11/11 07:29:08;;;;;;;33.43;7.00;;;10.20;99.90;;;;;;6187653;23;20100;-89
2022/11/11 07:31:52;;;;;;;18.23;5.63;;;10.20;99.90;;;;;;6213764;23;20031;-87
2022/11/11 07:34:36;;;;;;;13.37;5.33;;;10.20;99.90;;;;;;6214178;23;20087;-88
2022/11/11 07:44:32;;;;;;;14.10;5.10;;;10.30;99.90;;;;;;6194538;23;20071;-89
2022/11/11 08:18:36;;;;;;;10.50;4.27;;;10.40;99.90;;;;;;6213686;23;20062;-88
2022/11/11 08:24:47;;;;;;;20.77;5.27;;;10.50;99.90;;;;;;6205326;23;20089;-88
2022/11/11 08:27:32;;;;;;;33.97;6.27;;;10.60;99.90;;;;;;6220443;23;20066;-87
2022/11/11 08:46:33;;;;;;;15.27;4.47;;;10.80;99.90;;;;;;6191943;23;20571;-92
2022/11/11 08:55:07;;;;;;;36.87;7.43;;;10.80;99.90;;;;;;6202665;23;20073;-88
2022/11/11 09:07:00;;;;;;;15.50;4.90;;;11.00;99.90;;;;;;6197787;23;20399;-86
2022/11/11 09:09:54;;;;;;;10.17;4.20;;;11.10;99.90;;;;;;6214769;23;20020;-90
2022/11/11 09:12:38;;;;;;;10.17;3.93;;;11.10;99.90;;;;;;6243548;23;20639;-84
2022/11/11 09:15:23;;;;;;;8.37;4.17;;;11.10;99.90;;;;;;6244261;23;20670;-91
2022/11/11 09:18:13;;;;;;;10.93;4.50;;;11.20;99.90;;;;;;6244104;23;20058;-90
2022/11/11 09:21:18;;;;;;;11.43;4.00;;;11.20;99.90;;;;;;6245051;23;20015;-91
2022/11/11 09:24:06;;;;;;;11.90;4.10;;;11.20;99.90;;;;;;6247614;23;20019;-89
2022/11/11 09:38:27;;;;;;;13.40;4.93;;;11.50;99.90;;;;;;6150559;23;20593;-87
2022/11/11 09:41:23;;;;;;;11.70;5.37;;;11.50;99.90;;;;;;6150397;23;20073;-88
2022/11/11 09:44:53;;;;;;;16.23;4.83;;;11.50;99.90;;;;;;6150506;23;20404;-90
2022/11/11 09:47:43;;;;;;;13.60;4.63;;;11.60;99.90;;;;;;6062070;23;20484;-85
2022/11/11 09:50:31;;;;;;;12.10;4.23;;;11.60;99.90;;;;;;6137987;23;20185;-88
2022/11/11 09:53:24;;;;;;;9.07;3.87;;;11.60;99.90;;;;;;6235191;22;20019;-85
2022/11/11 09:56:12;;;;;;;11.27;3.80;;;11.60;99.90;;;;;;6243496;23;20143;-85
2022/11/11 09:59:14;;;;;;;22.83;5.13;;;11.60;99.90;;;;;;6243194;23;20509;-86
2022/11/11 10:02:00;;;;;;;8.87;4.07;;;11.60;99.90;;;;;;6242229;23;20043;-86
2022/11/11 10:04:59;;;;;;;11.67;4.17;;;11.60;99.90;;;;;;6242194;23;20462;-86
2022/11/11 10:08:04;;;;;;;11.63;4.33;;;11.70;99.90;;;;;;6241642;23;20059;-86
2022/11/11 10:10:52;;;;;;;7.67;3.93;;;11.70;99.90;;;;;;6241582;23;20039;-86
2022/11/11 10:13:37;;;;;;;9.13;3.93;;;11.70;99.90;;;;;;6242020;23;20095;-86
2022/11/11 10:16:36;;;;;;;8.17;3.73;;;11.70;99.90;;;;;;6242455;23;20020;-86
2022/11/11 10:19:28;;;;;;;;;;;11.80;99.90;;;;;;6243323;23;20066;-86
2022/11/11 10:22:26;;;;;;;8.10;4.03;;;11.80;99.90;;;;;;6242996;23;19995;-86
2022/11/11 10:25:11;;;;;;;7.32;3.65;;;11.80;99.90;;;;;;6243248;23;20070;-86
2022/11/11 10:27:58;;;;;;;12.33;3.63;;;11.90;99.90;;;;;;6243046;23;20390;-86
2022/11/11 10:30:44;;;;;;;7.53;3.43;;;11.90;99.90;;;;;;6242510;23;20073;-87
2022/11/11 10:33:50;;;;;;;21.20;4.67;;;11.90;99.90;;;;;;6242910;23;20047;-87
2022/11/11 10:36:43;;;;;;;16.73;4.70;;;12.00;99.90;;;;;;6241233;23;20078;-86
2022/11/11 10:40:14;;;;;;;19.73;4.60;;;11.90;99.90;;;;;;6242704;23;20354;-86
2022/11/11 10:42:59;;;;;;;12.47;4.40;;;12.00;99.90;;;;;;6214763;23;20513;-86
2022/11/11 10:45:50;;;;;;;10.93;4.27;;;12.10;99.90;;;;;;6244576;23;20359;-87
2022/11/11 10:48:52;;;;;;;13.17;5.87;;;12.10;99.90;;;;;;6244824;23;20015;-87
2022/11/11 10:51:52;;;;;;;59.97;9.63;;;12.10;99.90;;;;;;6244627;23;20019;-87
2022/11/11 10:55:01;;;;;;;30.00;6.57;;;12.20;99.90;;;;;;6244642;23;20070;-87
2022/11/11 10:57:54;;;;;;;7.88;3.83;;;12.20;99.90;;;;;;6244575;23;20066;-87
2022/11/11 11:00:40;;;;;;;20.13;4.90;;;12.20;99.90;;;;;;6244816;23;20094;-86
2022/11/11 11:03:37;;;;;;;6.60;3.35;;;12.30;99.90;;;;;;6244730;23;20066;-87
2022/11/11 11:06:27;;;;;;;11.47;3.67;;;12.30;99.90;;;;;;6243170;23;20019;-87
2022/11/11 11:09:40;;;;;;;9.20;4.25;;;12.40;99.90;;;;;;6245011;23;20022;-87
2022/11/11 11:12:42;;;;;;;8.90;3.33;;;12.40;99.90;;;;;;6245127;23;20342;-86
2022/11/11 11:15:29;;;;;;;8.43;3.43;;;12.40;99.90;;;;;;6244756;23;20398;-87
2022/11/11 11:18:20;;;;;;;7.90;3.50;;;12.50;99.90;;;;;;6244871;23;20022;-86
2022/11/11 11:21:06;;;;;;;8.57;3.53;;;12.50;99.90;;;;;;6244557;23;20286;-86
2022/11/11 11:23:51;;;;;;;9.10;3.60;;;12.50;99.90;;;;;;6243397;23;20405;-86
2022/11/11 11:26:46;;;;;;;8.90;3.33;;;12.50;99.90;;;;;;6242875;23;20473;-86
2022/11/11 11:29:43;;;;;;;8.35;3.63;;;12.50;99.90;;;;;;6243070;23;20065;-86
2022/11/11 11:32:29;;;;;;;9.50;3.55;;;12.50;99.90;;;;;;6243283;23;20066;-86
2022/11/11 11:35:29;;;;;;;6.35;3.45;;;12.60;99.90;;;;;;6244453;23;20062;-86
2022/11/11 11:38:13;;;;;;;;;;;12.60;99.90;;;;;;6243666;23;20350;-87
2022/11/11 11:40:57;;;;;;;65.80;8.70;;;12.60;99.90;;;;;;6244237;23;19911;-87
2022/11/11 11:43:42;;;;;;;22.67;5.43;;;12.60;99.90;;;;;;6244406;23;20023;-87
2022/11/11 11:46:28;;;;;;;99.30;10.30;;;12.60;99.90;;;;;;6244089;23;20497;-86
2022/11/11 11:49:30;;;;;;;35.20;5.00;;;12.60;99.90;;;;;;6242960;23;20091;-86
2022/11/11 11:52:27;;;;;;;114.13;17.42;;;12.70;99.90;;;;;;6244216;23;20027;-86
2022/11/11 11:55:27;;;;;;;42.58;5.93;;;12.60;99.90;;;;;;6244298;23;20038;-86
2022/11/11 11:58:35;;;;;;;18.35;4.40;;;12.70;99.90;;;;;;6244507;23;20023;-86
2022/11/11 12:02:02;;;;;;;32.97;6.03;;;12.70;99.90;;;;;;6242955;23;20070;-86
2022/11/11 12:05:24;;;;;;;87.15;10.07;;;12.70;99.90;;;;;;6244161;23;20023;-87
2022/11/11 12:08:17;;;;;;;18.33;4.57;;;12.70;99.90;;;;;;6244712;23;20027;-86
2022/11/11 12:11:23;;;;;;;61.58;10.82;;;12.70;99.90;;;;;;6244184;23;20031;-86
2022/11/11 12:14:25;;;;;;;36.85;5.88;;;12.70;99.90;;;;;;6244543;23;20090;-86
2022/11/11 12:17:39;;;;;;;31.05;6.38;;;12.70;99.90;;;;;;6242829;23;20030;-86
2022/11/11 12:20:49;;;;;;;29.15;5.20;;;12.80;99.90;;;;;;6129240;23;20077;-86
2022/11/11 12:23:55;;;;;;;47.85;7.05;;;12.80;99.90;;;;;;6243049;23;20023;-87
2022/11/11 12:26:59;;;;;;;58.33;7.82;;;12.80;99.90;;;;;;6244044;23;20529;-86
2022/11/11 12:30:14;;;;;;;54.60;6.18;;;12.80;99.90;;;;;;6243923;23;20051;-86
2022/11/11 12:33:26;;;;;;;14.68;3.88;;;12.80;99.90;;;;;;6242832;23;20087;-86
2022/11/11 12:36:27;;;;;;;21.48;4.70;;;12.80;99.90;;;;;;6243761;23;20469;-86
2022/11/11 12:39:40;;;;;;;21.40;4.75;;;12.80;99.90;;;;;;6243741;23;20023;-86
2022/11/11 12:42:33;;;;;;;21.17;6.90;;;12.80;99.90;;;;;;6244020;23;20023;-86
2022/11/11 12:45:25;;;;;;;22.33;7.20;;;12.80;99.90;;;;;;6243755;23;20066;-86
2022/11/11 12:48:41;;;;;;;13.85;4.75;;;12.80;99.90;;;;;;6243754;23;20058;-86
2022/11/11 12:52:03;;;;;;;26.13;6.63;;;12.80;99.90;;;;;;6221079;23;20347;-86
2022/11/11 12:55:12;;;;;;;27.02;7.88;;;12.80;99.90;;;;;;6243666;23;20075;-86
2022/11/11 12:58:07;;;;;;;9.43;3.65;;;12.80;99.90;;;;;;6220819;23;20461;-86
2022/11/11 13:01:22;;;;;;;6.80;2.97;;;12.80;99.90;;;;;;6243214;23;20064;-86
2022/11/11 13:04:34;;;;;;;6.50;2.55;;;12.80;99.90;;;;;;6243553;23;20019;-87
2022/11/11 13:07:50;;;;;;;7.80;3.50;;;12.80;99.90;;;;;;6243579;23;20107;-86
2022/11/11 13:10:55;;;;;;;7.25;3.20;;;12.80;99.90;;;;;;6243252;23;20386;-86
2022/11/11 13:14:03;;;;;;;7.00;2.65;;;12.80;99.90;;;;;;6220981;23;20489;-86
2022/11/11 13:16:50;;;;;;;6.78;3.15;;;12.80;99.90;;;;;;6243202;23;20019;-86
2022/11/11 13:19:54;;;;;;;8.50;2.88;;;12.80;99.90;;;;;;6243273;23;20079;-86
2022/11/11 13:22:38;;;;;;;6.22;2.50;;;12.80;99.90;;;;;;6243214;23;20071;-87
2022/11/11 13:25:27;;;;;;;4.57;2.30;;;12.80;99.90;;;;;;6243198;23;20026;-86
2022/11/11 13:28:34;;;;;;;4.43;2.17;;;12.80;99.90;;;;;;6243447;23;20014;-86
2022/11/11 13:31:33;;;;;;;5.20;2.40;;;12.80;99.90;;;;;;6243072;23;20019;-86
2022/11/11 13:34:19;;;;;;;6.65;2.78;;;12.80;99.90;;;;;;6243756;23;20356;-86
2022/11/11 13:37:06;;;;;;;6.90;3.13;;;12.80;99.90;;;;;;6242956;23;20054;-86
2022/11/11 13:39:51;;;;;;;7.57;3.13;;;12.80;99.90;;;;;;6242890;23;20083;-86
2022/11/11 13:42:45;;;;;;;5.70;2.70;;;12.80;99.90;;;;;;6220487;23;20018;-86
2022/11/11 13:45:36;;;;;;;5.43;2.30;;;12.80;99.90;;;;;;6243477;23;20022;-86
2022/11/11 13:48:31;;;;;;;8.50;2.58;;;12.80;99.90;;;;;;6220549;23;20067;-86
2022/11/11 13:51:24;;;;;;;7.57;2.20;;;12.80;99.90;;;;;;6242948;23;20519;-86
2022/11/11 13:54:41;;;;;;;5.22;2.30;;;12.90;99.90;;;;;;6243114;23;20382;-86
2022/11/11 13:57:30;;;;;;;5.93;2.20;;;12.90;99.90;;;;;;6241780;23;20019;-85
2022/11/11 14:00:21;;;;;;;4.55;2.17;;;12.90;99.90;;;;;;6242845;23;20019;-86
2022/11/11 14:03:36;;;;;;;4.43;2.30;;;12.90;99.90;;;;;;6243108;23;20023;-86
2022/11/11 14:06:26;;;;;;;6.10;2.40;;;12.90;99.90;;;;;;6230508;23;20070;-86
2022/11/11 14:09:10;;;;;;;5.50;2.47;;;12.90;99.90;;;;;;6242767;23;20035;-85
2022/11/11 14:12:22;;;;;;;7.53;3.17;;;12.90;99.90;;;;;;6242894;23;20027;-86
2022/11/11 14:15:37;;;;;;;6.07;3.00;;;12.90;99.90;;;;;;6242833;23;20509;-86
2022/11/11 14:18:24;;;;;;;6.80;2.13;;;12.90;99.90;;;;;;6245791;23;20382;-86
2022/11/11 14:21:09;;;;;;;7.35;2.67;;;12.90;99.90;;;;;;6244800;23;20076;-86
2022/11/11 14:23:54;;;;;;;7.45;3.38;;;12.90;99.90;;;;;;6222188;23;20027;-86
2022/11/11 14:26:38;;;;;;;7.72;2.40;;;12.90;99.90;;;;;;6244720;23;20019;-86
2022/11/11 14:29:36;;;;;;;5.03;2.45;;;12.90;99.90;;;;;;6222025;23;20461;-85
2022/11/11 14:32:48;;;;;;;4.47;2.38;;;13.00;99.90;;;;;;6245034;23;20015;-86
2022/11/11 14:35:50;;;;;;;5.30;2.00;;;13.00;99.90;;;;;;6245515;23;20059;-86
2022/11/11 14:38:59;;;;;;;3.97;2.10;;;13.00;99.90;;;;;;6244815;23;20042;-86
2022/11/11 14:41:49;;;;;;;6.47;2.42;;;13.00;99.90;;;;;;6223011;23;20103;-86
2022/11/11 14:44:33;;;;;;;4.63;2.28;;;12.90;99.90;;;;;;6244948;23;20108;-86
2022/11/11 14:47:33;;;;;;;6.22;2.35;;;13.00;99.90;;;;;;6222642;23;20024;-86
2022/11/11 14:50:29;;;;;;;3.75;1.80;;;13.00;99.90;;;;;;6244728;23;20061;-85
2022/11/11 14:53:17;;;;;;;5.30;1.83;;;13.00;99.90;;;;;;6244952;23;20457;-86
2022/11/11 14:56:02;;;;;;;4.33;2.03;;;13.00;99.90;;;;;;6222713;23;20023;-86
2022/11/11 14:58:47;;;;;;;5.97;2.17;;;13.00;99.90;;;;;;6245089;23;20348;-86
2022/11/11 15:01:32;;;;;;;4.97;2.25;;;12.90;99.90;;;;;;6244921;23;20035;-86
2022/11/11 15:04:16;;;;;;;5.70;2.05;;;12.90;99.90;;;;;;6222438;23;20023;-86
2022/11/11 15:07:02;;;;;;;5.13;2.08;;;12.90;99.90;;;;;;6222013;23;20082;-86
2022/11/11 15:10:07;;;;;;;5.47;2.17;;;12.90;99.90;;;;;;6244617;23;20063;-86
2022/11/11 15:13:10;;;;;;;7.18;3.10;;;12.90;99.90;;;;;;6222369;23;20015;-85
2022/11/11 15:16:39;;;;;;;6.95;2.72;;;12.90;99.90;;;;;;6245810;23;20023;-86
2022/11/11 15:19:59;;;;;;;4.65;2.17;;;12.90;99.90;;;;;;6245574;23;20047;-86
2022/11/11 15:22:52;;;;;;;4.75;2.10;;;12.80;99.90;;;;;;6222806;23;20074;-86
2022/11/11 15:25:54;;;;;;;4.82;2.15;;;12.70;99.90;;;;;;6245659;23;20490;-86
2022/11/11 15:28:59;;;;;;;7.38;2.85;;;12.70;99.90;;;;;;6245090;23;20508;-86
2022/11/11 15:32:15;;;;;;;8.50;4.97;;;12.70;99.90;;;;;;6245348;23;20019;-86
2022/11/11 15:35:40;;;;;;;12.00;7.38;;;12.60;99.90;;;;;;6244981;23;20474;-85
2022/11/11 15:38:25;;;;;;;14.27;8.43;;;12.50;99.90;;;;;;6244363;23;20063;-85
2022/11/11 15:41:27;;;;;;;14.25;9.02;;;12.50;99.90;;;;;;6244103;23;20031;-85
2022/11/11 15:44:21;;;;;;;16.45;9.15;;;12.40;99.90;;;;;;6244455;23;20019;-86
2022/11/11 15:47:06;;;;;;;13.95;8.70;;;12.30;99.90;;;;;;6243844;23;20147;-85
2022/11/11 15:51:08;;;;;;;;;;;;;;;;;;;;;
2022/11/11 15:54:48;;;;;;;;;;;;;;;;;;;;;
2022/11/11 16:08:57;;;;;;;8.90;3.40;;;11.80;99.90;;;;;;6245354;23;20103;-86
2022/11/11 16:11:42;;;;;;;8.63;4.00;;;11.80;99.90;;;;;;6245145;23;20031;-86
2022/11/11 16:14:48;;;;;;;11.93;3.92;;;11.70;99.90;;;;;;6244894;23;20462;-86
2022/11/11 16:17:38;;;;;;;7.00;3.50;;;11.60;99.90;;;;;;6242662;23;20019;-85
2022/11/11 16:20:33;;;;;;;7.13;3.53;;;11.60;99.90;;;;;;6221275;23;20023;-85
2022/11/11 16:23:19;;;;;;;6.87;3.47;;;11.50;99.90;;;;;;6243886;23;20469;-85
2022/11/11 16:26:09;;;;;;;6.80;3.50;;;11.50;99.90;;;;;;6243536;23;20035;-85
2022/11/11 16:28:58;;;;;;;10.50;3.70;;;11.40;99.90;;;;;;6220845;23;20020;-85
2022/11/11 16:31:44;;;;;;;6.75;3.00;;;11.30;99.90;;;;;;6243781;23;20038;-85
2022/11/11 16:34:28;;;;;;;7.90;2.90;;;11.30;99.90;;;;;;6243832;23;20015;-85
2022/11/11 16:37:15;;;;;;;6.43;2.80;;;11.30;99.90;;;;;;6243562;23;20101;-85
2022/11/11 16:40:30;;;;;;;8.07;3.03;;;11.20;99.90;;;;;;6220204;23;20035;-86
2022/11/11 16:43:25;;;;;;;5.83;3.00;;;11.10;99.90;;;;;;6221009;23;20446;-85
2022/11/11 16:46:13;;;;;;;8.70;3.20;;;11.10;99.90;;;;;;6220743;23;20020;-85
2022/11/11 16:48:58;;;;;;;9.57;3.50;;;11.00;99.90;;;;;;6243504;23;20050;-85
2022/11/11 16:51:46;;;;;;;7.63;3.27;;;11.00;99.90;;;;;;6243217;23;20102;-85
2022/11/11 16:54:36;;;;;;;6.07;3.25;;;10.90;99.90;;;;;;6220525;23;20015;-85
2022/11/11 16:57:27;;;;;;;7.73;3.53;;;10.90;99.90;;;;;;6243570;23;20343;-85
2022/11/11 17:00:14;;;;;;;6.53;3.20;;;10.80;99.90;;;;;;6242879;23;20505;-85
2022/11/11 17:03:13;;;;;;;6.20;3.00;;;10.80;99.90;;;;;;6243230;23;20058;-86
2022/11/11 17:06:04;;;;;;;7.40;3.33;;;10.80;99.90;;;;;;6243167;23;20074;-85
2022/11/11 17:08:49;;;;;;;10.93;3.07;;;10.70;99.90;;;;;;6243311;23;20023;-85
2022/11/11 17:11:43;;;;;;;9.27;3.33;;;10.70;99.90;;;;;;6220512;23;20346;-85
2022/11/11 17:14:30;;;;;;;6.43;2.90;;;10.60;99.90;;;;;;6220685;23;20066;-86
2022/11/11 17:17:14;;;;;;;8.40;3.40;;;10.60;99.90;;;;;;6243205;23;20019;-85
2022/11/11 17:20:14;;;;;;;8.47;3.90;;;10.60;99.90;;;;;;6243162;23;20023;-85
2022/11/11 17:22:58;;;;;;;;;;;10.60;99.90;;;;;;6243946;23;20047;-85
2022/11/11 17:25:43;;;;;;;9.67;5.30;;;10.50;99.90;;;;;;6220195;23;20242;-85
2022/11/11 17:28:33;;;;;;;10.77;4.53;;;10.50;99.90;;;;;;6243261;23;20019;-85
2022/11/11 17:31:18;;;;;;;12.37;6.13;;;10.50;99.90;;;;;;6220281;23;20509;-85
2022/11/11 17:34:15;;;;;;;10.23;4.60;;;10.40;99.90;;;;;;6243501;23;20058;-86
2022/11/11 17:37:00;;;;;;;10.63;5.10;;;10.40;99.90;;;;;;6243364;23;20023;-85
2022/11/11 17:39:44;;;;;;;11.80;5.07;;;10.30;99.90;;;;;;6242934;23;20019;-86
2022/11/11 17:42:29;;;;;;;11.77;5.80;;;10.30;99.90;;;;;;6243168;23;20074;-85
2022/11/11 17:45:13;;;;;;;12.87;6.73;;;10.20;99.90;;;;;;6243504;23;20038;-86
2022/11/11 17:47:58;;;;;;;10.37;6.00;;;10.30;99.90;;;;;;6242955;23;20031;-85
2022/11/11 17:50:43;;;;;;;12.00;5.43;;;10.20;99.90;;;;;;6242383;23;20487;-86
2022/11/11 17:53:31;;;;;;;10.53;5.10;;;10.20;99.90;;;;;;6243043;23;20023;-86
2022/11/11 17:56:18;;;;;;;9.07;5.50;;;10.20;99.90;;;;;;6242781;23;20071;-86
2022/11/11 17:59:03;;;;;;;14.67;5.23;;;10.20;99.90;;;;;;6220103;23;20027;-85
2022/11/11 18:01:47;;;;;;;12.60;6.20;;;10.20;99.90;;;;;;6242605;23;20026;-86
2022/11/11 18:04:32;;;;;;;11.10;5.80;;;10.20;99.90;;;;;;6242934;23;20131;-86
2022/11/11 18:07:16;;;;;;;11.40;5.40;;;10.20;99.90;;;;;;6242579;23;20023;-85
2022/11/11 18:10:01;;;;;;;12.13;4.90;;;10.10;99.90;;;;;;6219852;23;20067;-85
2022/11/11 18:12:45;;;;;;;12.67;4.83;;;10.10;99.90;;;;;;6220238;23;20090;-86
2022/11/11 18:15:34;;;;;;;9.60;4.57;;;10.00;99.90;;;;;;6242986;23;20038;-85
2022/11/11 18:18:18;;;;;;;8.93;4.67;;;10.00;99.90;;;;;;6242834;23;20454;-85
2022/11/11 18:21:04;;;;;;;8.93;5.50;;;10.00;99.90;;;;;;6220069;23;20027;-85
2022/11/11 18:23:48;;;;;;;10.83;5.30;;;10.00;99.90;;;;;;6242984;23;20038;-86
2022/11/11 18:26:33;;;;;;;8.87;5.03;;;10.00;99.90;;;;;;6219942;23;20421;-86
2022/11/11 18:29:17;;;;;;;9.50;5.13;;;10.00;99.90;;;;;;6241673;23;20055;-86
2022/11/11 18:32:01;;;;;;;11.00;5.57;;;10.00;99.90;;;;;;6243055;23;20055;-86
2022/11/11 18:34:46;;;;;;;9.83;5.30;;;10.00;99.90;;;;;;6242869;23;20019;-86
2022/11/11 18:37:30;;;;;;;8.83;5.07;;;9.90;99.90;;;;;;6242688;23;20019;-86
2022/11/11 18:40:15;;;;;;;10.23;4.87;;;9.90;99.90;;;;;;6242408;23;20067;-86
2022/11/11 18:42:59;;;;;;;8.67;4.80;;;9.90;99.90;;;;;;6243038;23;20524;-86
2022/11/11 18:45:44;;;;;;;12.93;5.40;;;9.80;99.90;;;;;;6242663;23;20067;-86
2022/11/11 18:48:28;;;;;;;8.90;4.90;;;9.80;99.90;;;;;;6242753;23;20391;-86
2022/11/11 18:51:16;;;;;;;10.43;4.97;;;9.70;99.90;;;;;;6243093;23;20386;-85
2022/11/11 18:54:01;;;;;;;8.47;4.50;;;9.70;99.90;;;;;;6220276;23;20020;-86
2022/11/11 18:56:45;;;;;;;11.23;4.90;;;9.70;99.90;;;;;;6242770;23;20379;-86
2022/11/11 18:59:30;;;;;;;8.53;4.33;;;9.70;99.90;;;;;;6242613;23;20084;-86
2022/11/11 19:02:15;;;;;;;9.47;4.73;;;9.70;99.90;;;;;;6243299;23;20443;-86
2022/11/11 19:04:59;;;;;;;9.33;4.27;;;9.70;99.90;;;;;;6221863;23;20131;-86
2022/11/11 19:07:46;;;;;;;9.37;4.13;;;9.70;99.90;;;;;;6244355;23;20089;-86
2022/11/11 19:10:31;;;;;;;7.77;4.17;;;9.60;99.90;;;;;;6244301;23;20019;-86
2022/11/11 19:13:15;;;;;;;9.07;3.63;;;9.60;99.90;;;;;;6244465;23;20016;-86
2022/11/11 19:16:05;;;;;;;6.43;3.50;;;9.70;99.90;;;;;;6244328;23;20071;-86
2022/11/11 19:18:51;;;;;;;7.63;3.57;;;9.70;99.90;;;;;;6244379;23;20350;-86
2022/11/11 19:21:37;;;;;;;8.80;3.63;;;9.80;99.90;;;;;;6221523;23;20162;-86
2022/11/11 19:24:21;;;;;;;6.93;3.53;;;9.80;99.90;;;;;;6244504;23;20022;-86
2022/11/11 19:27:05;;;;;;;8.93;3.47;;;9.80;99.90;;;;;;6244267;23;20070;-86
2022/11/11 19:29:49;;;;;;;7.43;3.30;;;9.90;99.90;;;;;;6221373;23;20026;-86
2022/11/11 19:32:34;;;;;;;7.50;3.77;;;9.90;99.90;;;;;;6221548;23;20023;-86
2022/11/11 19:35:19;;;;;;;6.73;3.20;;;10.00;99.90;;;;;;6244433;23;20063;-86
2022/11/11 19:38:03;;;;;;;7.40;3.73;;;10.00;99.90;;;;;;6244352;23;20019;-86
2022/11/11 19:40:48;;;;;;;5.07;2.90;;;10.00;99.90;;;;;;6244128;23;20074;-86
2022/11/11 19:43:33;;;;;;;5.63;3.03;;;10.00;99.90;;;;;;6244287;23;20019;-86
2022/11/11 19:46:20;;;;;;;5.47;3.33;;;10.10;99.90;;;;;;6244031;23;20121;-86
2022/11/11 19:49:04;;;;;;;6.77;3.30;;;10.10;99.90;;;;;;6221440;23;20019;-86
2022/11/11 19:51:48;;;;;;;7.80;3.90;;;10.20;99.90;;;;;;6243750;23;20082;-86
2022/11/11 19:54:32;;;;;;;8.57;3.07;;;10.20;99.90;;;;;;6244130;23;20465;-86
2022/11/11 19:57:16;;;;;;;7.50;3.30;;;10.30;99.90;;;;;;6221254;23;20365;-86
2022/11/11 20:00:01;;;;;;;6.70;3.33;;;10.40;99.90;;;;;;6243820;23;20466;-86
2022/11/11 20:02:45;;;;;;;8.03;4.70;;;10.40;99.90;;;;;;6244247;23;20371;-86
2022/11/11 20:05:34;;;;;;;7.30;4.07;;;10.50;99.90;;;;;;6243887;23;20019;-86
2022/11/11 20:08:19;;;;;;;7.22;3.97;;;10.50;99.90;;;;;;6243958;23;20351;-86
2022/11/11 20:11:05;;;;;;;6.73;3.53;;;10.60;99.90;;;;;;6243945;23;20050;-86
2022/11/11 20:13:50;;;;;;;7.70;4.27;;;10.60;99.90;;;;;;6243783;23;20043;-86
2022/11/11 20:16:34;;;;;;;7.57;2.87;;;10.60;99.90;;;;;;6243825;23;20402;-86
2022/11/11 20:19:19;;;;;;;6.17;3.30;;;10.60;99.90;;;;;;6243928;23;20019;-86
2022/11/11 20:22:04;;;;;;;7.30;3.53;;;10.60;99.90;;;;;;6243899;23;20074;-86
2022/11/11 20:24:49;;;;;;;7.13;3.23;;;10.60;99.90;;;;;;6221250;23;20019;-86
2022/11/11 20:27:35;;;;;;;7.67;3.73;;;10.50;99.90;;;;;;6243611;23;20070;-86
2022/11/11 20:30:19;;;;;;;8.40;4.30;;;10.40;99.90;;;;;;6220778;23;20024;-86
2022/11/11 20:33:03;;;;;;;10.03;4.13;;;10.30;99.90;;;;;;6229929;22;20054;-86
2022/11/11 20:35:48;;;;;;;8.80;4.17;;;10.20;99.90;;;;;;6251452;22;20465;-86
2022/11/11 20:38:33;;;;;;;7.97;4.60;;;10.10;99.90;;;;;;6274047;22;20022;-86
2022/11/11 20:41:18;;;;;;;8.67;4.83;;;10.10;99.90;;;;;;6251267;22;20101;-86
2022/11/11 20:44:03;;;;;;;11.20;5.30;;;10.00;99.90;;;;;;6251470;22;20480;-86
2022/11/11 20:46:50;;;;;;;11.33;5.53;;;10.00;99.90;;;;;;6274029;22;20137;-86
2022/11/11 20:49:35;;;;;;;13.30;5.97;;;9.90;99.90;;;;;;6251030;22;20469;-86
2022/11/11 20:52:19;;;;;;;11.13;5.80;;;9.90;99.90;;;;;;6274386;22;20380;-86
2022/11/11 20:55:04;;;;;;;12.57;7.40;;;9.80;99.90;;;;;;6274223;22;20057;-86
2022/11/11 20:57:48;;;;;;;12.00;6.03;;;9.80;99.90;;;;;;6251110;22;20022;-86
2022/11/11 21:00:33;;;;;;;11.70;6.67;;;9.70;99.90;;;;;;6273847;22;20022;-86
2022/11/11 21:03:18;;;;;;;12.47;7.53;;;9.70;99.90;;;;;;6251323;22;20518;-86
2022/11/11 21:06:08;;;;;;;13.17;6.13;;;9.70;99.90;;;;;;6274030;22;20022;-86
2022/11/11 21:08:52;;;;;;;12.57;6.13;;;9.60;99.90;;;;;;6274259;22;20397;-86
2022/11/11 21:11:37;;;;;;;11.20;5.20;;;9.60;99.90;;;;;;6273882;22;20077;-86
2022/11/11 21:14:21;;;;;;;12.00;5.60;;;9.60;99.90;;;;;;6251274;22;20084;-86
2022/11/11 21:17:06;;;;;;;12.00;5.63;;;9.60;99.90;;;;;;6274085;22;20023;-85
2022/11/11 21:19:50;;;;;;;9.10;5.03;;;9.60;99.90;;;;;;6273617;22;20374;-86
2022/11/11 21:22:40;;;;;;;11.73;4.90;;;9.50;99.90;;;;;;6274011;22;20022;-86
2022/11/11 21:25:25;;;;;;;7.43;4.67;;;9.60;99.90;;;;;;6274026;22;20023;-86
2022/11/11 21:28:09;;;;;;;7.43;4.50;;;9.60;99.90;;;;;;6274485;22;20500;-86
2022/11/11 21:31:00;;;;;;;8.23;4.40;;;9.50;99.90;;;;;;6273588;22;20027;-85
2022/11/11 21:33:50;;;;;;;7.67;4.27;;;9.40;99.90;;;;;;6250997;22;20077;-86
2022/11/11 21:36:38;;;;;;;9.03;4.40;;;9.40;99.90;;;;;;6273738;22;20018;-86
2022/11/11 21:39:22;;;;;;;12.87;5.10;;;9.40;99.90;;;;;;6250698;22;20081;-86
2022/11/11 21:42:06;;;;;;;9.87;4.50;;;9.30;99.90;;;;;;6251058;22;20469;-85
2022/11/11 21:44:50;;;;;;;10.47;4.80;;;9.30;99.90;;;;;;6273831;22;20038;-85
2022/11/11 21:47:35;;;;;;;12.30;5.00;;;9.30;99.90;;;;;;6273550;22;20098;-86
2022/11/11 21:53:11;;;;;;;13.90;5.33;;;9.20;99.90;;;;;;6208707;23;20024;-88
2022/11/11 21:56:19;;;;;;;9.47;4.83;;;9.20;99.90;;;;;;6190410;23;20104;-89
2022/11/11 21:59:20;;;;;;;;;;;;;;;;;;;;;
2022/11/11 22:02:41;;;;;;;;;;;;;;;;;;;;;
2022/11/11 22:05:35;;;;;;;10.63;4.70;;;9.20;99.90;;;;;;6243196;23;20022;-88
2022/11/11 22:08:32;;;;;;;;;;;;;;;;;;;;;
2022/11/11 22:11:22;;;;;;;11.23;5.30;;;9.20;99.90;;;;;;6243353;23;20019;-88
2022/11/11 22:14:42;;;;;;;;;;;;;;;;;;;;;
2022/11/11 22:17:54;;;;;;;10.23;5.10;;;9.10;99.90;;;;;;6243334;23;20042;-88
2022/11/11 22:21:16;;;;;;;;;;;;;;;;;;;;;
2022/11/11 22:24:19;;;;;;;11.30;4.87;;;9.10;99.90;;;;;;6243887;23;20104;-88
2022/11/11 22:30:44;;;;;;;;;;;;;;;;;;;;;
2022/11/11 22:33:49;;;;;;;7.13;3.87;;;9.30;99.90;;;;;;6243419;23;20466;-88
2022/11/11 22:36:54;;;;;;;7.30;3.93;;;9.30;99.90;;;;;;6243448;23;20023;-89
2022/11/11 22:39:54;;;;;;;8.00;4.40;;;9.10;99.90;;;;;;6223306;23;20080;-88
2022/11/11 22:42:55;;;;;;;8.43;4.30;;;9.00;99.90;;;;;;6222745;23;20070;-88
2022/11/11 22:46:07;;;;;;;;;;;;;;;;;;;;;
2022/11/11 22:49:26;;;;;;;9.90;4.80;;;8.90;99.90;;;;;;6245090;23;20094;-88
2022/11/11 22:52:47;;;;;;;;;;;;;;;;;;;;;
2022/11/11 22:56:07;;;;;;;8.97;4.50;;;8.80;99.90;;;;;;6245437;23;20434;-88
2022/11/11 23:02:41;;;;;;;;;;;;;;;;;;;;;
2022/11/11 23:06:01;;;;;;;8.87;4.10;;;8.70;99.90;;;;;;6245312;23;20016;-88
2022/11/11 23:08:49;;;;;;;7.45;4.30;;;8.70;99.90;;;;;;6222324;23;20019;-88
2022/11/11 23:12:09;;;;;;;;;;;;;;;;;;;;;
2022/11/11 23:14:58;;;;;;;10.67;4.93;;;8.60;99.90;;;;;;6245276;23;20015;-88
2022/11/11 23:18:15;;;;;;;;;;;;;;;;;;;;;
2022/11/11 23:28:54;;;;;;;10.13;5.53;;;8.50;99.90;;;;;;6240847;23;20069;-88
2022/11/11 23:32:07;;;;;;;;;;;;;;;;;;;;;
2022/11/11 23:35:16;;;;;;;;;;;;;;;;;;;;;
2022/11/11 23:38:09;;;;;;;9.77;4.85;;;8.60;99.90;;;;;;6245213;23;20111;-88
2022/11/11 23:41:05;;;;;;;9.47;4.50;;;8.70;99.90;;;;;;6244949;23;20027;-88
2022/11/11 23:44:06;;;;;;;8.43;4.67;;;8.60;99.90;;;;;;6222584;23;20027;-88
2022/11/11 23:47:10;;;;;;;;;;;;;;;;;;;;;
2022/11/11 23:50:32;;;;;;;;;;;;;;;;;;;;;
2022/11/11 23:56:40;;;;;;;10.80;4.90;;;8.50;99.90;;;;;;6198586;23;20470;-88
2022/11/11 23:59:45;;;;;;;11.87;5.23;;;8.40;99.90;;;;;;6244873;23;20018;-88
